Unicom:                    122.8

AWOS:                  118.275

Elevation           1458’ MSL

TPA:                   2500’ MSL

06/24:         5003’ L   75’ W

PAPI:       06/Left     24/Left

(Operate lights on unicom freq.)

Traffic Pattern: Left

Beacon: Sunset to Sunrise

Windsock: yes, lighted

Segmented Circle: No

 

Cleveland Center: 126.72/291.65

FSS: Altoona

[Source: ADDS]
METAR
KFKL 151556Z AUTO 32008G15KT 10SM FEW027 OVC065 18/12 A2995 RMK AO2 SLP140 T01780122 =
KFKL 151123Z 1512/1612 30007KT 4SM BR BKN002 FM151400 33009G16KT P6SM SCT040 FM152300 32004KT P6SM BKN200
TAF
KFKL 151123Z 1512/1612 30007KT 4SM BR BKN002 FM151400 33009G16KT P6SM SCT040 FM152300 32004KT P6SM BKN200 =
[Source: ADDS]
METAR
KDUJ 151553Z AUTO 29006KT 10SM FEW024 FEW032 OVC055 18/13 A2992 RMK AO2 SLP123 T01830128 =
KDUJ 151123Z 1512/1612 28006KT P6SM SCT060 TEMPO 1512/1514 4SM BR BKN002 FM151400 33010G20KT P6SM SCT040 FM152300 32005KT P6SM SCT150
TAF
KDUJ 151123Z 1512/1612 28006KT P6SM SCT060 TEMPO 1512/1514 4SM BR BKN002 FM151400 33010G20KT P6SM SCT040 FM152300 32005KT P6SM SCT150 =

Welcome to Clarion County Airport.

We look forward to serving all of your aviation needs.


Clarion County Airport is a General Aviation, Business Class airport serving the Clarion County Area in Central Western Pennsylvania.  Our 5,003' asphalt runway and gps approaches are capable of serving most of the general aviation fleet in most weather conditions.


If you are planning a fuel stop while flying in Western Pennsylvania, consider paying us a visit. Our prices are some of the lowest in the state Check prices here ----> www.airnav.com/fuel and enter identifier KAXQ or see current prices below. We can have you fueled and taxiing out to the runway in about 10 minutes. Our current hours of operation are Monday- Sunday 8:00AM-4:00PM. Holiday closures are Christmas Day and Thanksgiving. If you require use of the facilities during the holidays or after hours please call ahead and someone will be there to assist you.


- Airport Manager -  


                             CURRENT FUEL PRICES       JET-A w/additive    $3.50               100LL     $4.50 CC  


                              Self Service fueling available 24/7, credit card reader enabled. Center point fueling available upon request.

                                                           For after hours fueling assistance please contact 814-316-5746